Hakuryoumaru No.15 — JD2439 — position and weather

sailwx.info

Track history (hours):
 
Tides and Currents Weather Stations Pressure Air Temp Water Temp Dewpoint Dewpoint Depression Visibility Wind Speed Wind Dir Waves Ship Positions

Hakuryoumaru No.15

Last reported at 2015-May-24 21:33 UTC. Time now 2015-May-27 13:46 UTC.
Position N 35°15' E 140°31'.

Length 80 m; draft 5.4 m.

Type: Tanker. MMSI: 431000243.

Date/timePositionNaut miles runAvg speedWind from/ knotsBaromVisibWave heightAir tempDewpointWater temp
2015-May-24 21:33N 35°15' E 140°31'1612.9
2015-May-24 20:19N 35°04' E 140°17'912.0
2015-May-24 19:33N 34°59' E 140°08'1512.0
2015-May-24 18:17N 34°51' E 139°51'  
2015-May-22 11:18N 35°25' E 140°41'77 4.0
2015-May-21 16:12N 36°41' E 140°54'812.6
2015-May-21 15:33N 36°33' E 140°55'1312.5
2015-May-21 14:33N 36°21' E 140°56'1212.5
2015-May-21 13:33N 36°08' E 140°56'2612.9
2015-May-21 11:32N 35°42' E 140°55'1813.3
2015-May-21 10:11N 35°28' E 140°41'1413.7
2015-May-21 09:10N 35°17' E 140°30'2213.4
2015-May-21 07:31N 35°02' E 140°11'2210.3
2015-May-21 05:20N 34°56' E 139°44'911.5
2015-May-21 04:33N 35°05' E 139°45'1312.8
2015-May-21 03:33N 35°18' E 139°44'1111.2
2015-May-21 02:33N 35°28' E 139°50'1010.0
2015-May-21 01:33N 35°30' E 140°02'0 0.0
2015-May-21 00:33N 35°30' E 140°02'0 0.0
2015-May-20 23:33N 35°30' E 140°02'2 2.4
2015-May-20 22:33N 35°31' E 139°59'0 0.1
2015-May-20 21:28N 35°31' E 139°59'0 0.0
2015-May-20 20:31N 35°31' E 139°59'0 0.0
2015-May-20 19:25N 35°31' E 139°59'0 0.0
2015-May-20 18:22N 35°31' E 139°59'0 0.0
2015-May-20 17:31N 35°31' E 139°59'0 0.0
2015-May-20 16:28N 35°31' E 139°59'0 0.0
2015-May-20 15:22N 35°31' E 139°59'0 0.0
2015-May-20 14:28N 35°31' E 139°59'1010.4
2015-May-20 13:33N 35°27' E 139°49'1111.1
2015-May-20 12:32N 35°15' E 139°47'1312.8
2015-May-20 11:33N 35°04' E 139°41'  
2015-May-16 04:27N 34°08' E 135°05'2 0.9
2015-May-16 02:23N 34°07' E 135°08'0 0.0
2015-May-16 01:33N 34°07' E 135°08'0 0.2
2015-May-16 00:32N 34°07' E 135°08'  
Track history (hours):
 
Tides and Currents Weather Stations Pressure Air Temp Water Temp Dewpoint Dewpoint Depression Visibility Wind Speed Wind Dir Waves Ship Positions

Hakuryoumaru No.15

Last reported at 2015-May-24 21:33 UTC. Time now 2015-May-27 13:46 UTC.
Position N 35°15' E 140°31'.

Length 80 m; draft 5.4 m.

Type: Tanker. MMSI: 431000243.

Date/timePositionNaut miles runAvg speedWind from/ knotsBaromVisibWave heightAir tempDewpointWater temp
2015-May-24 21:33N 35°15' E 140°31'1612.9
2015-May-24 20:19N 35°04' E 140°17'912.0
2015-May-24 19:33N 34°59' E 140°08'1512.0
2015-May-24 18:17N 34°51' E 139°51'  
2015-May-22 11:18N 35°25' E 140°41'77 4.0
2015-May-21 16:12N 36°41' E 140°54'812.6
2015-May-21 15:33N 36°33' E 140°55'1312.5
2015-May-21 14:33N 36°21' E 140°56'1212.5
2015-May-21 13:33N 36°08' E 140°56'2612.9
2015-May-21 11:32N 35°42' E 140°55'1813.3
2015-May-21 10:11N 35°28' E 140°41'1413.7
2015-May-21 09:10N 35°17' E 140°30'2213.4
2015-May-21 07:31N 35°02' E 140°11'2210.3
2015-May-21 05:20N 34°56' E 139°44'911.5
2015-May-21 04:33N 35°05' E 139°45'1312.8
2015-May-21 03:33N 35°18' E 139°44'1111.2
2015-May-21 02:33N 35°28' E 139°50'1010.0
2015-May-21 01:33N 35°30' E 140°02'0 0.0
2015-May-21 00:33N 35°30' E 140°02'0 0.0
2015-May-20 23:33N 35°30' E 140°02'2 2.4
2015-May-20 22:33N 35°31' E 139°59'0 0.1
2015-May-20 21:28N 35°31' E 139°59'0 0.0
2015-May-20 20:31N 35°31' E 139°59'0 0.0
2015-May-20 19:25N 35°31' E 139°59'0 0.0
2015-May-20 18:22N 35°31' E 139°59'0 0.0
2015-May-20 17:31N 35°31' E 139°59'0 0.0
2015-May-20 16:28N 35°31' E 139°59'0 0.0
2015-May-20 15:22N 35°31' E 139°59'0 0.0
2015-May-20 14:28N 35°31' E 139°59'1010.4
2015-May-20 13:33N 35°27' E 139°49'1111.1
2015-May-20 12:32N 35°15' E 139°47'1312.8
2015-May-20 11:33N 35°04' E 139°41'  
2015-May-16 04:27N 34°08' E 135°05'2 0.9
2015-May-16 02:23N 34°07' E 135°08'0 0.0
2015-May-16 01:33N 34°07' E 135°08'0 0.2
2015-May-16 00:32N 34°07' E 135°08'  

Dump ship's entire track history